sensor_id;sensor_type;location;lat;lon;timestamp;pressure;altitude;pressure_sealevel;temperature;humidity
78073;BME280;67281;48.770;11.440;2024-03-22T00:02:21;97948.00;;;17.44;48.11
78073;BME280;67281;48.770;11.440;2024-03-22T00:05:08;97940.19;;;17.42;47.68
78073;BME280;67281;48.770;11.440;2024-03-22T00:07:54;97943.69;;;17.43;47.80
78073;BME280;67281;48.770;11.440;2024-03-22T00:10:44;97946.47;;;17.41;47.74
78073;BME280;67281;48.770;11.440;2024-03-22T00:13:30;97942.00;;;17.42;48.02
78073;BME280;67281;48.770;11.440;2024-03-22T00:16:17;97935.88;;;17.41;47.92
78073;BME280;67281;48.770;11.440;2024-03-22T00:19:04;97936.13;;;17.38;47.32
78073;BME280;67281;48.770;11.440;2024-03-22T00:21:51;97940.72;;;17.36;47.70
78073;BME280;67281;48.770;11.440;2024-03-22T00:24:37;97926.66;;;17.36;47.45
78073;BME280;67281;48.770;11.440;2024-03-22T00:27:27;97937.09;;;17.37;48.09
78073;BME280;67281;48.770;11.440;2024-03-22T00:30:13;97922.31;;;17.35;48.25
78073;BME280;67281;48.770;11.440;2024-03-22T00:33:00;97917.16;;;17.33;48.12
78073;BME280;67281;48.770;11.440;2024-03-22T00:35:47;97912.69;;;17.34;47.71
78073;BME280;67281;48.770;11.440;2024-03-22T00:38:34;97910.31;;;17.31;47.98
78073;BME280;67281;48.770;11.440;2024-03-22T00:41:20;97900.56;;;17.31;48.01
78073;BME280;67281;48.770;11.440;2024-03-22T00:44:10;97910.19;;;17.32;47.96
78073;BME280;67281;48.770;11.440;2024-03-22T00:46:56;97905.00;;;17.31;47.29
78073;BME280;67281;48.770;11.440;2024-03-22T00:49:43;97899.97;;;17.28;47.60
78073;BME280;67281;48.770;11.440;2024-03-22T00:52:30;97890.34;;;17.27;47.38
78073;BME280;67281;48.770;11.440;2024-03-22T00:55:17;97892.88;;;17.28;47.93
78073;BME280;67281;48.770;11.440;2024-03-22T00:58:03;97887.00;;;17.25;47.34
78073;BME280;67281;48.770;11.440;2024-03-22T01:00:53;97886.03;;;17.26;47.93
78073;BME280;67281;48.770;11.440;2024-03-22T01:03:39;97882.69;;;17.24;47.85
78073;BME280;67281;48.770;11.440;2024-03-22T01:06:26;97880.88;;;17.24;47.94
78073;BME280;67281;48.770;11.440;2024-03-22T01:09:12;97873.06;;;17.23;47.60
78073;BME280;67281;48.770;11.440;2024-03-22T01:11:59;97868.72;;;17.22;47.96
78073;BME280;67281;48.770;11.440;2024-03-22T01:14:46;97865.38;;;17.20;47.81
78073;BME280;67281;48.770;11.440;2024-03-22T01:17:35;97868.03;;;17.20;47.24
78073;BME280;67281;48.770;11.440;2024-03-22T01:20:23;97862.72;;;17.20;47.82
78073;BME280;67281;48.770;11.440;2024-03-22T01:23:10;97866.47;;;17.17;47.20
78073;BME280;67281;48.770;11.440;2024-03-22T01:25:56;97856.59;;;17.19;47.42
78073;BME280;67281;48.770;11.440;2024-03-22T01:28:43;97856.84;;;17.16;47.88
78073;BME280;67281;48.770;11.440;2024-03-22T01:31:30;97852.66;;;17.14;47.54
78073;BME280;67281;48.770;11.440;2024-03-22T01:34:19;97851.69;;;17.15;47.26
78073;BME280;67281;48.770;11.440;2024-03-22T01:37:05;97850.84;;;17.14;47.64
78073;BME280;67281;48.770;11.440;2024-03-22T01:39:52;97844.84;;;17.12;47.21
78073;BME280;67281;48.770;11.440;2024-03-22T01:42:39;97843.03;;;17.13;47.11
78073;BME280;67281;48.770;11.440;2024-03-22T01:45:28;97842.19;;;17.12;47.89
78073;BME280;67281;48.770;11.440;2024-03-22T01:48:17;97832.72;;;17.09;47.50
78073;BME280;67281;48.770;11.440;2024-03-22T01:51:07;97830.91;;;17.10;47.14
78073;BME280;67281;48.770;11.440;2024-03-22T01:53:54;97833.00;;;17.06;47.74
78073;BME280;67281;48.770;11.440;2024-03-22T01:56:42;97832.72;;;17.09;47.59
78073;BME280;67281;48.770;11.440;2024-03-22T01:59:30;97830.38;;;17.06;47.18
78073;BME280;67281;48.770;11.440;2024-03-22T02:02:17;97830.50;;;17.05;47.52
78073;BME280;67281;48.770;11.440;2024-03-22T02:05:11;97827.97;;;17.03;47.85
78073;BME280;67281;48.770;11.440;2024-03-22T02:08:01;97826.16;;;17.04;47.75
78073;BME280;67281;48.770;11.440;2024-03-22T02:10:47;97824.63;;;17.01;47.12
78073;BME280;67281;48.770;11.440;2024-03-22T02:13:34;97823.91;;;16.99;47.05
78073;BME280;67281;48.770;11.440;2024-03-22T02:16:21;97825.59;;;17.00;47.05
78073;BME280;67281;48.770;11.440;2024-03-22T02:19:08;97819.47;;;17.00;47.05
78073;BME280;67281;48.770;11.440;2024-03-22T02:21:54;97823.09;;;16.99;46.85
78073;BME280;67281;48.770;11.440;2024-03-22T02:24:43;97821.28;;;16.99;47.68
78073;BME280;67281;48.770;11.440;2024-03-22T02:27:30;97817.22;;;16.95;47.41
78073;BME280;67281;48.770;11.440;2024-03-22T02:30:17;97816.38;;;16.95;46.98
78073;BME280;67281;48.770;11.440;2024-03-22T02:33:04;97810.38;;;16.93;46.99
78073;BME280;67281;48.770;11.440;2024-03-22T02:35:51;97798.13;;;16.92;46.88
78073;BME280;67281;48.770;11.440;2024-03-22T02:38:38;97808.69;;;16.92;47.33
78073;BME280;67281;48.770;11.440;2024-03-22T02:41:28;97811.34;;;16.92;47.30
78073;BME280;67281;48.770;11.440;2024-03-22T02:44:14;97803.53;;;16.90;47.17
78073;BME280;67281;48.770;11.440;2024-03-22T02:47:01;97801.88;;;16.89;47.25
78073;BME280;67281;48.770;11.440;2024-03-22T02:49:48;97806.31;;;16.89;47.56
78073;BME280;67281;48.770;11.440;2024-03-22T02:52:34;97799.47;;;16.86;46.92
78073;BME280;67281;48.770;11.440;2024-03-22T02:55:21;97801.28;;;16.86;47.61
78073;BME280;67281;48.770;11.440;2024-03-22T02:58:10;97797.09;;;16.83;47.28
78073;BME280;67281;48.770;11.440;2024-03-22T03:00:56;97800.44;;;16.85;47.18
78073;BME280;67281;48.770;11.440;2024-03-22T03:03:43;97795.28;;;16.84;47.56
78073;BME280;67281;48.770;11.440;2024-03-22T03:06:30;97790.13;;;16.82;46.86
78073;BME280;67281;48.770;11.440;2024-03-22T03:09:16;97779.69;;;16.81;47.45
78073;BME280;67281;48.770;11.440;2024-03-22T03:12:03;97788.47;;;16.81;46.84
78073;BME280;67281;48.770;11.440;2024-03-22T03:14:53;97774.50;;;16.79;47.40
78073;BME280;67281;48.770;11.440;2024-03-22T03:17:39;97776.47;;;16.77;46.74
78073;BME280;67281;48.770;11.440;2024-03-22T03:20:26;97784.41;;;16.77;47.43
78073;BME280;67281;48.770;11.440;2024-03-22T03:23:13;97779.22;;;16.75;47.04
78073;BME280;67281;48.770;11.440;2024-03-22T03:25:59;97778.41;;;16.75;47.40
78073;BME280;67281;48.770;11.440;2024-03-22T03:28:46;97771.44;;;16.74;47.07
78073;BME280;67281;48.770;11.440;2024-03-22T03:31:35;97770.47;;;16.75;46.63
78073;BME280;67281;48.770;11.440;2024-03-22T03:34:22;97771.69;;;16.71;46.73
78073;BME280;67281;48.770;11.440;2024-03-22T03:37:08;97773.38;;;16.72;47.39
78073;BME280;67281;48.770;11.440;2024-03-22T03:39:55;97773.50;;;16.70;47.11
78073;BME280;67281;48.770;11.440;2024-03-22T03:42:42;97774.47;;;16.69;47.08
78073;BME280;67281;48.770;11.440;2024-03-22T03:45:28;97770.84;;;16.70;46.85
78073;BME280;67281;48.770;11.440;2024-03-22T03:48:17;97771.13;;;16.67;47.17
78073;BME280;67281;48.770;11.440;2024-03-22T03:51:05;97771.13;;;16.67;46.61
78073;BME280;67281;48.770;11.440;2024-03-22T03:53:51;97764.84;;;16.68;47.37
78073;BME280;67281;48.770;11.440;2024-03-22T03:56:38;97765.00;;;16.67;47.02
78073;BME280;67281;48.770;11.440;2024-03-22T03:59:25;97766.94;;;16.65;47.04
78073;BME280;67281;48.770;11.440;2024-03-22T04:02:11;97761.63;;;16.65;47.34
78073;BME280;67281;48.770;11.440;2024-03-22T04:05:00;97749.59;;;16.61;46.68
78073;BME280;67281;48.770;11.440;2024-03-22T04:07:47;97744.59;;;16.58;47.01
78073;BME280;67281;48.770;11.440;2024-03-22T04:10:34;97738.31;;;16.59;47.26
78073;BME280;67281;48.770;11.440;2024-03-22T04:13:20;97734.25;;;16.55;46.74
78073;BME280;67281;48.770;11.440;2024-03-22T04:16:07;97736.78;;;16.56;46.56
78073;BME280;67281;48.770;11.440;2024-03-22T04:18:54;97733.44;;;16.54;47.08
78073;BME280;67281;48.770;11.440;2024-03-22T04:21:43;97731.03;;;16.51;47.10
78073;BME280;67281;48.770;11.440;2024-03-22T04:24:30;97735.50;;;16.51;46.60
78073;BME280;67281;48.770;11.440;2024-03-22T04:27:16;97739.81;;;16.52;46.99
78073;BME280;67281;48.770;11.440;2024-03-22T04:30:03;97733.81;;;16.50;46.93
78073;BME280;67281;48.770;11.440;2024-03-22T04:32:50;97742.72;;;16.49;46.38
78073;BME280;67281;48.770;11.440;2024-03-22T04:35:36;97746.34;;;16.48;47.16
78073;BME280;67281;48.770;11.440;2024-03-22T04:38:26;97742.03;;;16.47;46.69
78073;BME280;67281;48.770;11.440;2024-03-22T04:41:12;97747.31;;;16.47;47.17
78073;BME280;67281;48.770;11.440;2024-03-22T04:43:59;97747.31;;;16.47;46.74
78073;BME280;67281;48.770;11.440;2024-03-22T04:46:46;97746.72;;;16.43;46.39
78073;BME280;67281;48.770;11.440;2024-03-22T04:49:32;97748.41;;;16.44;47.04
78073;BME280;67281;48.770;11.440;2024-03-22T04:52:19;97751.19;;;16.42;46.86
78073;BME280;67281;48.770;11.440;2024-03-22T04:55:08;97750.47;;;16.40;46.73
78073;BME280;67281;48.770;11.440;2024-03-22T04:57:55;97739.06;;;16.40;46.39
78073;BME280;67281;48.770;11.440;2024-03-22T05:00:42;97746.28;;;16.38;46.42
78073;BME280;67281;48.770;11.440;2024-03-22T05:03:29;97747.25;;;16.37;46.31
78073;BME280;67281;48.770;11.440;2024-03-22T05:06:16;97746.41;;;16.36;46.22
78073;BME280;67281;48.770;11.440;2024-03-22T05:09:02;97743.78;;;16.36;46.31
78073;BME280;67281;48.770;11.440;2024-03-22T05:11:52;97740.41;;;16.34;46.99
78073;BME280;67281;48.770;11.440;2024-03-22T05:14:38;97747.56;;;16.34;46.58
78073;BME280;67281;48.770;11.440;2024-03-22T05:17:25;97749.34;;;16.33;46.27
78073;BME280;67281;48.770;11.440;2024-03-22T05:20:12;97751.44;;;16.30;46.84
78073;BME280;67281;48.770;11.440;2024-03-22T05:22:59;97749.63;;;16.30;46.22
78073;BME280;67281;48.770;11.440;2024-03-22T05:25:45;97753.34;;;16.28;46.31
78073;BME280;67281;48.770;11.440;2024-03-22T05:28:34;97745.28;;;16.29;46.95
78073;BME280;67281;48.770;11.440;2024-03-22T05:31:21;97747.22;;;16.27;46.59
78073;BME280;67281;48.770;11.440;2024-03-22T05:34:08;97735.81;;;16.27;46.01
78073;BME280;67281;48.770;11.440;2024-03-22T05:36:54;97739.56;;;16.24;46.16
78073;BME280;67281;48.770;11.440;2024-03-22T05:39:41;97733.31;;;16.25;46.35
78073;BME280;67281;48.770;11.440;2024-03-22T05:42:27;97735.09;;;16.25;46.23
78073;BME280;67281;48.770;11.440;2024-03-22T05:45:18;97729.94;;;16.23;46.17
78073;BME280;67281;48.770;11.440;2024-03-22T05:48:05;97722.03;;;16.23;46.55
78073;BME280;67281;48.770;11.440;2024-03-22T05:50:52;97713.50;;;16.20;46.32
78073;BME280;67281;48.770;11.440;2024-03-22T05:53:39;97713.63;;;16.18;46.18
78073;BME280;67281;48.770;11.440;2024-03-22T05:56:26;97713.63;;;16.18;46.04
78073;BME280;67281;48.770;11.440;2024-03-22T05:59:13;97716.03;;;16.21;46.44
78073;BME280;67281;48.770;11.440;2024-03-22T06:02:02;97708.09;;;16.21;45.98
78073;BME280;67281;48.770;11.440;2024-03-22T06:04:49;97706.41;;;16.20;46.46
78073;BME280;67281;48.770;11.440;2024-03-22T06:07:36;97712.53;;;16.21;45.97
78073;BME280;67281;48.770;11.440;2024-03-22T06:10:25;97712.41;;;16.22;45.83
78073;BME280;67281;48.770;11.440;2024-03-22T06:13:11;97714.34;;;16.20;46.55
78073;BME280;67281;48.770;11.440;2024-03-22T06:15:58;97721.19;;;16.23;46.63
78073;BME280;67281;48.770;11.440;2024-03-22T06:18:48;97714.34;;;16.20;45.88
78073;BME280;67281;48.770;11.440;2024-03-22T06:21:35;97718.66;;;16.21;45.87
78073;BME280;67281;48.770;11.440;2024-03-22T06:24:21;97714.34;;;16.20;46.36
78073;BME280;67281;48.770;11.440;2024-03-22T06:27:08;97711.72;;;16.20;46.46
78073;BME280;67281;48.770;11.440;2024-03-22T06:29:54;97722.03;;;16.23;46.10
78073;BME280;67281;48.770;11.440;2024-03-22T06:32:41;97709.75;;;16.22;46.28
78073;BME280;67281;48.770;11.440;2024-03-22T06:35:30;97707.97;;;16.23;46.25
78073;BME280;67281;48.770;11.440;2024-03-22T06:38:16;97703.78;;;16.20;46.24
78073;BME280;67281;48.770;11.440;2024-03-22T06:41:03;97698.47;;;16.20;45.97
78073;BME280;67281;48.770;11.440;2024-03-22T06:43:50;97693.19;;;16.20;46.16
78073;BME280;67281;48.770;11.440;2024-03-22T06:46:36;97687.66;;;16.23;45.70
78073;BME280;67281;48.770;11.440;2024-03-22T06:49:23;97678.88;;;16.23;45.68
78073;BME280;67281;48.770;11.440;2024-03-22T06:52:13;97687.66;;;16.23;45.85
78073;BME280;67281;48.770;11.440;2024-03-22T06:54:59;97692.22;;;16.21;45.96
78073;BME280;67281;48.770;11.440;2024-03-22T06:57:47;97679.13;;;16.20;46.10
78073;BME280;67281;48.770;11.440;2024-03-22T07:00:33;97687.78;;;16.22;46.10
78073;BME280;67281;48.770;11.440;2024-03-22T07:03:20;97689.59;;;16.21;46.05
78073;BME280;67281;48.770;11.440;2024-03-22T07:06:07;97690.56;;;16.20;45.23
78073;BME280;67281;48.770;11.440;2024-03-22T07:08:56;97686.09;;;16.21;45.39
78073;BME280;67281;48.770;11.440;2024-03-22T07:11:43;97683.47;;;16.21;45.43
78073;BME280;67281;48.770;11.440;2024-03-22T07:14:30;97689.59;;;16.21;45.33
78073;BME280;67281;48.770;11.440;2024-03-22T07:17:16;97684.56;;;16.18;45.74
78073;BME280;67281;48.770;11.440;2024-03-22T07:20:04;97678.16;;;16.21;46.02
78073;BME280;67281;48.770;11.440;2024-03-22T07:22:51;97683.31;;;16.22;45.64
78073;BME280;67281;48.770;11.440;2024-03-22T07:25:44;97677.91;;;16.24;45.36
78073;BME280;67281;48.770;11.440;2024-03-22T07:28:31;97680.69;;;16.22;45.66
78073;BME280;67281;48.770;11.440;2024-03-22T07:31:18;97676.09;;;16.24;45.37
78073;BME280;67281;48.770;11.440;2024-03-22T07:34:05;97669.41;;;16.20;45.75
78073;BME280;67281;48.770;11.440;2024-03-22T07:36:52;97670.09;;;16.22;45.97
78073;BME280;67281;48.770;11.440;2024-03-22T07:39:38;97679.72;;;16.23;45.41
78073;BME280;67281;48.770;11.440;2024-03-22T07:42:28;97673.44;;;16.24;45.67
78073;BME280;67281;48.770;11.440;2024-03-22T07:45:14;97672.47;;;16.25;45.97
78073;BME280;67281;48.770;11.440;2024-03-22T07:48:01;97673.19;;;16.27;46.00
78073;BME280;67281;48.770;11.440;2024-03-22T07:50:55;97671.25;;;16.29;45.36
78073;BME280;67281;48.770;11.440;2024-03-22T07:53:42;97671.13;;;16.31;45.55
78073;BME280;67281;48.770;11.440;2024-03-22T07:56:28;97673.75;;;16.31;45.89
78073;BME280;67281;48.770;11.440;2024-03-22T07:59:18;97678.09;;;16.32;45.25
78073;BME280;67281;48.770;11.440;2024-03-22T08:02:05;97678.91;;;16.32;45.30
78073;BME280;67281;48.770;11.440;2024-03-22T08:04:52;97682.25;;;16.34;45.83
78073;BME280;67281;48.770;11.440;2024-03-22T08:07:38;97679.59;;;16.34;45.76
78073;BME280;67281;48.770;11.440;2024-03-22T08:10:25;97677.13;;;16.33;45.62
78073;BME280;67281;48.770;11.440;2024-03-22T08:13:12;97677.13;;;16.33;45.97
78073;BME280;67281;48.770;11.440;2024-03-22T08:16:01;97677.94;;;16.33;45.35
78073;BME280;67281;48.770;11.440;2024-03-22T08:18:48;97676.16;;;16.34;45.40
78073;BME280;67281;48.770;11.440;2024-03-22T08:21:35;97669.19;;;16.33;45.96
78073;BME280;67281;48.770;11.440;2024-03-22T08:24:21;97668.47;;;16.31;45.60
78073;BME280;67281;48.770;11.440;2024-03-22T08:27:08;97674.16;;;16.36;45.45
78073;BME280;67281;48.770;11.440;2024-03-22T08:29:55;97668.03;;;16.35;45.45
78073;BME280;67281;48.770;11.440;2024-03-22T08:32:44;97669.84;;;16.35;45.79
78073;BME280;67281;48.770;11.440;2024-03-22T08:35:31;97671.66;;;16.34;45.48
78073;BME280;67281;48.770;11.440;2024-03-22T08:38:18;97669.00;;;16.34;45.86
78073;BME280;67281;48.770;11.440;2024-03-22T08:41:04;97668.22;;;16.34;45.31
78073;BME280;67281;48.770;11.440;2024-03-22T08:43:51;97670.69;;;16.35;45.71
78073;BME280;67281;48.770;11.440;2024-03-22T08:46:38;97669.72;;;16.36;45.48
78073;BME280;67281;48.770;11.440;2024-03-22T08:49:28;97663.72;;;16.34;45.80
78073;BME280;67281;48.770;11.440;2024-03-22T08:52:15;97655.78;;;16.34;45.73
78073;BME280;67281;48.770;11.440;2024-03-22T08:55:01;97659.00;;;16.38;45.54
78073;BME280;67281;48.770;11.440;2024-03-22T08:57:48;97650.25;;;16.37;46.14
78073;BME280;67281;48.770;11.440;2024-03-22T09:00:35;97651.06;;;16.38;45.35
78073;BME280;67281;48.770;11.440;2024-03-22T09:03:25;97648.44;;;16.38;45.65
78073;BME280;67281;48.770;11.440;2024-03-22T09:06:14;97649.13;;;16.40;45.24
78073;BME280;67281;48.770;11.440;2024-03-22T09:09:01;97647.31;;;16.40;45.65
78073;BME280;67281;48.770;11.440;2024-03-22T09:11:48;97636.75;;;16.40;45.25
78073;BME280;67281;48.770;11.440;2024-03-22T09:14:34;97645.66;;;16.39;46.03
78073;BME280;67281;48.770;11.440;2024-03-22T09:17:21;97623.38;;;16.42;45.73
78073;BME280;67281;48.770;11.440;2024-03-22T09:20:09;97633.13;;;16.41;45.55
78073;BME280;67281;48.770;11.440;2024-03-22T09:22:58;97632.59;;;16.48;45.49
78073;BME280;67281;48.770;11.440;2024-03-22T09:25:45;97637.88;;;16.48;45.66
78073;BME280;67281;48.770;11.440;2024-03-22T09:28:32;97627.44;;;16.46;46.30
78073;BME280;67281;48.770;11.440;2024-03-22T09:31:19;97633.44;;;16.48;45.74
78073;BME280;67281;48.770;11.440;2024-03-22T09:34:06;97626.34;;;16.49;46.19
78073;BME280;67281;48.770;11.440;2024-03-22T09:36:53;97629.81;;;16.49;45.86
78073;BME280;67281;48.770;11.440;2024-03-22T09:39:42;97616.19;;;16.54;46.19
78073;BME280;67281;48.770;11.440;2024-03-22T09:42:31;97625.94;;;16.53;46.14
78073;BME280;67281;48.770;11.440;2024-03-22T09:45:19;97624.81;;;16.56;46.10
78073;BME280;67281;48.770;11.440;2024-03-22T09:48:06;97621.22;;;16.57;45.55
78073;BME280;67281;48.770;11.440;2024-03-22T09:50:54;97616.75;;;16.57;46.18
78073;BME280;67281;48.770;11.440;2024-03-22T09:53:43;97616.47;;;16.60;45.86
78073;BME280;67281;48.770;11.440;2024-03-22T09:56:34;97612.63;;;16.64;46.10
78073;BME280;67281;48.770;11.440;2024-03-22T09:59:22;97614.28;;;16.65;45.40
78073;BME280;67281;48.770;11.440;2024-03-22T10:02:10;97600.66;;;16.70;46.16
78073;BME280;67281;48.770;11.440;2024-03-22T10:04:58;97610.00;;;16.74;45.68
78073;BME280;67281;48.770;11.440;2024-03-22T10:07:45;97603.59;;;16.77;45.99
78073;BME280;67281;48.770;11.440;2024-03-22T10:10:32;97594.53;;;16.79;46.04
78073;BME280;67281;48.770;11.440;2024-03-22T10:13:21;97591.63;;;16.82;45.83
78073;BME280;67281;48.770;11.440;2024-03-22T10:16:08;97586.19;;;16.84;45.33
78073;BME280;67281;48.770;11.440;2024-03-22T10:18:55;97588.69;;;16.85;45.72
78073;BME280;67281;48.770;11.440;2024-03-22T10:21:41;97587.59;;;16.88;46.15
78073;BME280;67281;48.770;11.440;2024-03-22T10:24:28;97586.63;;;16.89;45.69
78073;BME280;67281;48.770;11.440;2024-03-22T10:27:15;97590.81;;;16.91;45.67
78073;BME280;67281;48.770;11.440;2024-03-22T10:30:08;97584.66;;;16.91;46.09
78073;BME280;67281;48.770;11.440;2024-03-22T10:32:55;97581.75;;;16.94;45.55
78073;BME280;67281;48.770;11.440;2024-03-22T10:35:44;97575.47;;;16.95;45.88
78073;BME280;67281;48.770;11.440;2024-03-22T10:38:32;97576.31;;;16.95;46.11
78073;BME280;67281;48.770;11.440;2024-03-22T10:41:20;97573.53;;;16.97;46.64
78073;BME280;67281;48.770;11.440;2024-03-22T10:44:06;97563.63;;;16.99;46.03
78073;BME280;67281;48.770;11.440;2024-03-22T10:46:57;97565.03;;;17.03;46.10
78073;BME280;67281;48.770;11.440;2024-03-22T10:49:48;97559.97;;;17.09;46.19
78073;BME280;67281;48.770;11.440;2024-03-22T10:52:39;97554.53;;;17.11;46.20
78073;BME280;67281;48.770;11.440;2024-03-22T10:55:28;97548.00;;;17.15;45.97
78073;BME280;67281;48.770;11.440;2024-03-22T10:58:17;97543.94;;;17.21;45.75
78073;BME280;67281;48.770;11.440;2024-03-22T11:01:04;97528.19;;;17.29;45.42
78073;BME280;67281;48.770;11.440;2024-03-22T11:04:03;97524.28;;;17.33;45.14
78073;BME280;67281;48.770;11.440;2024-03-22T11:06:50;97520.06;;;17.40;45.24
78073;BME280;67281;48.770;11.440;2024-03-22T11:09:36;97520.63;;;17.44;44.79
78073;BME280;67281;48.770;11.440;2024-03-22T11:12:24;97503.59;;;17.46;45.31
78073;BME280;67281;48.770;11.440;2024-03-22T11:15:11;97499.00;;;17.48;44.83
78073;BME280;67281;48.770;11.440;2024-03-22T11:17:58;97492.72;;;17.49;45.45
78073;BME280;67281;48.770;11.440;2024-03-22T11:20:47;97497.03;;;17.50;45.02
78073;BME280;67281;48.770;11.440;2024-03-22T11:23:34;97486.84;;;17.55;44.96
78073;BME280;67281;48.770;11.440;2024-03-22T11:26:22;97481.41;;;17.57;45.14
78073;BME280;67281;48.770;11.440;2024-03-22T11:29:09;97473.84;;;17.62;45.81
78073;BME280;67281;48.770;11.440;2024-03-22T11:31:55;97471.47;;;17.68;45.34
78073;BME280;67281;48.770;11.440;2024-03-22T11:34:42;97467.56;;;17.72;45.46
78073;BME280;67281;48.770;11.440;2024-03-22T11:37:32;97464.31;;;17.79;45.79
78073;BME280;67281;48.770;11.440;2024-03-22T11:40:19;97448.78;;;17.84;45.53
78073;BME280;67281;48.770;11.440;2024-03-22T11:43:06;97452.13;;;17.86;45.92
78073;BME280;67281;48.770;11.440;2024-03-22T11:45:53;97435.78;;;17.90;45.43
78073;BME280;67281;48.770;11.440;2024-03-22T11:48:40;97436.00;;;17.97;44.98
78073;BME280;67281;48.770;11.440;2024-03-22T11:51:27;97428.16;;;18.05;45.25
78073;BME280;67281;48.770;11.440;2024-03-22T11:54:19;97423.22;;;18.10;45.53
78073;BME280;67281;48.770;11.440;2024-03-22T11:57:05;97425.97;;;18.18;44.95
78073;BME280;67281;48.770;11.440;2024-03-22T11:59:58;97414.06;;;18.22;45.37
78073;BME280;67281;48.770;11.440;2024-03-22T12:02:45;97402.19;;;18.26;45.12
78073;BME280;67281;48.770;11.440;2024-03-22T12:05:32;97390.28;;;18.30;45.74
78073;BME280;67281;48.770;11.440;2024-03-22T12:08:18;97402.94;;;18.36;44.63
78073;BME280;67281;48.770;11.440;2024-03-22T12:11:10;97389.06;;;18.43;45.70
78073;BME280;67281;48.770;11.440;2024-03-22T12:13:57;97382.47;;;18.47;44.44
78073;BME280;67281;48.770;11.440;2024-03-22T12:16:44;97370.72;;;18.49;44.63
78073;BME280;67281;48.770;11.440;2024-03-22T12:19:31;97381.47;;;18.48;44.77
78073;BME280;67281;48.770;11.440;2024-03-22T12:22:17;97371.53;;;18.50;45.02
78073;BME280;67281;48.770;11.440;2024-03-22T12:25:05;97373.22;;;18.51;44.63
78073;BME280;67281;48.770;11.440;2024-03-22T12:27:55;97358.97;;;18.52;45.35
78073;BME280;67281;48.770;11.440;2024-03-22T12:30:41;97358.66;;;18.55;45.51
78073;BME280;67281;48.770;11.440;2024-03-22T12:33:28;97362.78;;;18.57;44.33
78073;BME280;67281;48.770;11.440;2024-03-22T12:36:15;97356.34;;;18.60;44.12
78073;BME280;67281;48.770;11.440;2024-03-22T12:39:01;97353.41;;;18.63;44.13
78073;BME280;67281;48.770;11.440;2024-03-22T12:41:49;97346.94;;;18.65;44.96
78073;BME280;67281;48.770;11.440;2024-03-22T12:44:38;97337.53;;;18.71;44.26
78073;BME280;67281;48.770;11.440;2024-03-22T12:47:25;97329.94;;;18.76;44.53
78073;BME280;67281;48.770;11.440;2024-03-22T12:50:11;97338.41;;;18.80;44.44
78073;BME280;67281;48.770;11.440;2024-03-22T12:52:59;97327.34;;;18.84;44.86
78073;BME280;67281;48.770;11.440;2024-03-22T12:55:46;97319.88;;;18.88;45.26
78073;BME280;67281;48.770;11.440;2024-03-22T12:58:32;97312.44;;;18.91;44.69
78073;BME280;67281;48.770;11.440;2024-03-22T13:01:22;97299.69;;;18.95;44.66
78073;BME280;67281;48.770;11.440;2024-03-22T13:04:08;97305.66;;;18.97;44.04
78073;BME280;67281;48.770;11.440;2024-03-22T13:06:55;97302.69;;;19.00;44.21
78073;BME280;67281;48.770;11.440;2024-03-22T13:09:41;97296.38;;;19.01;44.57
78073;BME280;67281;48.770;11.440;2024-03-22T13:12:28;97284.78;;;19.02;45.05
78073;BME280;67281;48.770;11.440;2024-03-22T13:15:16;97281.13;;;19.03;44.68
78073;BME280;67281;48.770;11.440;2024-03-22T13:18:05;97273.69;;;19.07;44.06
78073;BME280;67281;48.770;11.440;2024-03-22T13:20:52;97269.72;;;19.11;44.58
78073;BME280;67281;48.770;11.440;2024-03-22T13:23:38;97268.25;;;19.16;43.94
78073;BME280;67281;48.770;11.440;2024-03-22T13:26:25;97263.59;;;19.18;44.10
78073;BME280;67281;48.770;11.440;2024-03-22T13:29:13;97258.13;;;19.20;44.23
78073;BME280;67281;48.770;11.440;2024-03-22T13:32:00;97253.81;;;19.27;44.17
78073;BME280;67281;48.770;11.440;2024-03-22T13:34:49;97249.84;;;19.31;44.20
78073;BME280;67281;48.770;11.440;2024-03-22T13:37:37;97243.19;;;19.27;44.32
78073;BME280;67281;48.770;11.440;2024-03-22T13:40:23;97234.41;;;19.26;44.13
78073;BME280;67281;48.770;11.440;2024-03-22T13:43:10;97233.41;;;19.27;44.23
78073;BME280;67281;48.770;11.440;2024-03-22T13:45:56;97223.59;;;19.36;44.52
78073;BME280;67281;48.770;11.440;2024-03-22T13:48:43;97220.13;;;19.44;44.29
78073;BME280;67281;48.770;11.440;2024-03-22T13:51:32;97216.81;;;19.50;44.57
78073;BME280;67281;48.770;11.440;2024-03-22T13:54:19;97207.00;;;19.50;44.69
78073;BME280;67281;48.770;11.440;2024-03-22T13:57:05;97198.09;;;19.51;45.07
78073;BME280;67281;48.770;11.440;2024-03-22T13:59:52;97199.38;;;19.47;45.12
78073;BME280;67281;48.770;11.440;2024-03-22T14:02:39;97192.56;;;19.45;45.06
78073;BME280;67281;48.770;11.440;2024-03-22T14:05:26;97193.22;;;19.47;45.02
78073;BME280;67281;48.770;11.440;2024-03-22T14:08:15;97191.88;;;19.43;45.17
78073;BME280;67281;48.770;11.440;2024-03-22T14:11:02;97178.09;;;19.39;45.39
78073;BME280;67281;48.770;11.440;2024-03-22T14:13:49;97185.06;;;19.40;45.54
78073;BME280;67281;48.770;11.440;2024-03-22T14:16:36;97177.09;;;19.40;45.33
78073;BME280;67281;48.770;11.440;2024-03-22T14:19:22;97172.78;;;19.47;45.34
78073;BME280;67281;48.770;11.440;2024-03-22T14:22:09;97167.31;;;19.49;45.34
78073;BME280;67281;48.770;11.440;2024-03-22T14:24:58;97157.50;;;19.49;45.46
78073;BME280;67281;48.770;11.440;2024-03-22T14:27:44;97156.38;;;19.52;45.47
78073;BME280;67281;48.770;11.440;2024-03-22T14:30:31;97145.88;;;19.50;45.83
78073;BME280;67281;48.770;11.440;2024-03-22T14:33:17;97143.41;;;19.49;45.31
78073;BME280;67281;48.770;11.440;2024-03-22T14:36:05;97134.75;;;19.47;45.70